createdAt,value
2018-08-17T00:02:13.131Z,8.97
2018-08-17T00:06:16.227Z,7.77
2018-08-17T00:10:19.472Z,8.77
2018-08-17T00:14:22.563Z,7.13
2018-08-17T00:18:25.677Z,7.20
2018-08-17T00:22:28.785Z,7.97
2018-08-17T00:26:31.917Z,8.03
2018-08-17T00:30:35.195Z,8.80
2018-08-17T00:34:38.328Z,8.87
2018-08-17T00:38:41.408Z,8.90
2018-08-17T00:42:44.625Z,8.53
2018-08-17T00:46:47.716Z,10.60
2018-08-17T00:50:50.932Z,10.20
2018-08-17T00:54:54.016Z,8.33
2018-08-17T00:58:57.151Z,9.37
2018-08-17T01:03:00.290Z,10.43
2018-08-17T01:07:03.651Z,11.47
2018-08-17T01:11:06.757Z,11.47
2018-08-17T01:15:09.864Z,9.10
2018-08-17T01:19:12.947Z,12.47
2018-08-17T01:23:16.077Z,10.93
2018-08-17T01:27:19.163Z,10.67
2018-08-17T01:31:22.656Z,12.63
2018-08-17T01:35:25.740Z,12.60
2018-08-17T01:39:28.894Z,12.80
2018-08-17T01:43:31.945Z,15.20
2018-08-17T01:47:35.156Z,15.50
2018-08-17T01:51:38.240Z,13.40
2018-08-17T01:55:41.360Z,14.53
2018-08-17T01:59:44.440Z,14.73
2018-08-17T02:03:47.668Z,13.40
2018-08-17T02:07:50.783Z,16.43
2018-08-17T02:11:53.916Z,15.77
2018-08-17T02:15:57.019Z,15.43
2018-08-17T02:20:00.170Z,15.37
2018-08-17T02:24:03.237Z,14.07
2018-08-17T02:28:06.365Z,13.70
2018-08-17T02:32:09.681Z,16.93
2018-08-17T02:36:12.803Z,14.23
2018-08-17T02:40:15.883Z,14.30
2018-08-17T02:44:19.008Z,14.70
2018-08-17T02:48:22.113Z,12.47
2018-08-17T02:52:25.345Z,12.80
2018-08-17T02:56:28.456Z,13.00
2018-08-17T03:00:31.579Z,13.80
2018-08-17T03:04:34.680Z,16.57
2018-08-17T03:08:37.909Z,11.93
2018-08-17T03:12:40.997Z,12.70
2018-08-17T03:16:44.139Z,13.20
2018-08-17T03:20:47.225Z,12.00
2018-08-17T03:24:50.456Z,11.53
2018-08-17T03:28:53.556Z,11.50
2018-08-17T03:32:57.000Z,11.17
2018-08-17T03:37:00.089Z,10.50
2018-08-17T03:41:03.288Z,11.90
2018-08-17T03:45:06.388Z,10.10
2018-08-17T03:49:09.513Z,10.43
2018-08-17T03:53:12.628Z,10.03
2018-08-17T03:57:15.768Z,12.07
2018-08-17T04:01:18.855Z,15.53
2018-08-17T04:05:21.994Z,16.83
2018-08-17T04:09:25.174Z,14.97
2018-08-17T04:13:28.314Z,11.47
2018-08-17T04:17:31.387Z,13.30
2018-08-17T04:21:34.510Z,15.17
2018-08-17T04:25:37.608Z,14.20
2018-08-17T04:29:40.752Z,17.47
2018-08-17T04:33:44.088Z,13.30
2018-08-17T04:37:47.221Z,13.13
2018-08-17T04:41:50.307Z,16.23
2018-08-17T04:45:53.429Z,17.87
2018-08-17T04:49:56.523Z,13.17
2018-08-17T04:53:59.660Z,12.23
2018-08-17T04:58:02.759Z,15.87
2018-08-17T05:02:05.880Z,12.47
2018-08-17T05:06:08.961Z,11.80
2018-08-17T05:10:12.177Z,13.93
2018-08-17T05:14:15.274Z,11.30
2018-08-17T05:18:18.449Z,12.73
2018-08-17T05:22:21.532Z,17.50
2018-08-17T05:26:24.667Z,14.37
2018-08-17T05:30:27.773Z,14.40
2018-08-17T05:34:31.108Z,13.20
2018-08-17T05:38:34.192Z,12.40
2018-08-17T05:42:37.901Z,12.60
2018-08-17T05:46:40.988Z,12.23
2018-08-17T05:50:44.205Z,12.10
2018-08-17T05:54:47.292Z,18.23
2018-08-17T05:58:50.644Z,11.43
2018-08-17T06:02:53.765Z,13.57
2018-08-17T06:06:57.064Z,14.10
2018-08-17T06:11:00.213Z,38.83
2018-08-17T06:15:03.736Z,16.53
2018-08-17T06:19:06.891Z,15.17
2018-08-17T06:23:09.965Z,13.60
2018-08-17T06:27:13.054Z,27.73
2018-08-17T06:31:16.293Z,19.70
2018-08-17T06:35:19.712Z,17.33
2018-08-17T06:39:22.868Z,16.80
2018-08-17T06:43:25.960Z,17.50
2018-08-17T06:47:29.363Z,24.03
2018-08-17T06:51:32.460Z,18.03
2018-08-17T06:55:35.676Z,23.93
2018-08-17T06:59:38.780Z,29.77
2018-08-17T07:03:41.912Z,26.13
2018-08-17T07:07:45.020Z,18.87
2018-08-17T07:11:48.143Z,22.97
2018-08-17T07:15:51.296Z,30.27
2018-08-17T07:19:54.421Z,23.40
2018-08-17T07:23:57.668Z,23.77
2018-08-17T07:28:00.835Z,28.30
2018-08-17T07:32:03.931Z,21.77
2018-08-17T07:36:07.196Z,20.50
2018-08-17T07:40:10.384Z,21.43
2018-08-17T07:44:13.548Z,20.83
2018-08-17T07:48:16.764Z,16.30
2018-08-17T07:52:19.864Z,17.97
2018-08-17T07:56:22.971Z,25.27
2018-08-17T08:00:26.201Z,20.40
2018-08-17T08:04:29.297Z,19.77
2018-08-17T08:08:32.520Z,18.10
2018-08-17T08:12:35.640Z,15.00
2018-08-17T08:16:38.914Z,19.00
2018-08-17T08:20:43.604Z,16.10
2018-08-17T08:24:46.839Z,20.83
2018-08-17T08:28:49.936Z,15.67
2018-08-17T08:32:53.060Z,15.00
2018-08-17T08:36:56.407Z,14.97
2018-08-17T08:40:59.637Z,20.37
2018-08-17T08:45:02.760Z,14.87
2018-08-17T08:49:06.293Z,11.23
2018-08-17T08:53:09.933Z,11.70
2018-08-17T08:57:13.174Z,12.40
2018-08-17T09:01:16.292Z,9.50
2018-08-17T09:05:19.456Z,10.97
2018-08-17T09:09:22.575Z,9.43
2018-08-17T09:13:25.709Z,8.57
2018-08-17T09:17:28.872Z,5.97
2018-08-17T09:21:32.107Z,6.63
2018-08-17T09:25:35.214Z,10.03
2018-08-17T09:29:38.340Z,9.33
2018-08-17T09:33:41.439Z,7.53
2018-08-17T09:37:44.903Z,7.37
2018-08-17T09:41:48.142Z,11.30
2018-08-17T09:45:51.212Z,6.83
2018-08-17T09:49:54.330Z,10.60
2018-08-17T09:53:57.552Z,5.27
2018-08-17T09:58:00.635Z,18.73
2018-08-17T10:02:09.620Z,7.80
2018-08-17T10:06:17.916Z,6.60
2018-08-17T10:10:22.557Z,4.40
2018-08-17T10:14:25.659Z,4.60
2018-08-17T10:18:36.033Z,7.33
2018-08-17T10:22:39.137Z,9.37
2018-08-17T10:26:43.939Z,13.67
2018-08-17T10:30:47.036Z,5.73
2018-08-17T10:34:50.286Z,6.00
2018-08-17T10:38:53.532Z,4.97
2018-08-17T10:42:57.658Z,5.27
2018-08-17T10:47:00.780Z,9.87
2018-08-17T10:51:04.000Z,6.57
2018-08-17T10:55:07.093Z,10.70
2018-08-17T10:59:16.860Z,7.23
2018-08-17T11:03:19.949Z,6.13
2018-08-17T11:07:29.297Z,7.30
2018-08-17T11:11:32.412Z,3.83
2018-08-17T11:15:35.622Z,2.40
2018-08-17T11:19:38.692Z,4.90
2018-08-17T11:23:41.809Z,4.13
2018-08-17T11:27:44.884Z,4.73
2018-08-17T11:31:49.184Z,4.50
2018-08-17T11:35:52.516Z,5.33
2018-08-17T11:40:00.017Z,4.70
2018-08-17T11:44:07.345Z,5.40
2018-08-17T11:48:11.657Z,4.50
2018-08-17T11:52:14.748Z,6.13
2018-08-17T11:56:17.963Z,4.30
2018-08-17T12:00:21.044Z,6.50
2018-08-17T12:04:24.253Z,5.07
2018-08-17T12:08:27.430Z,1.83
2018-08-17T12:12:31.952Z,2.70
2018-08-17T12:16:35.025Z,6.27
2018-08-17T12:20:38.231Z,6.80
2018-08-17T12:24:41.380Z,4.43
2018-08-17T12:28:44.519Z,3.90
2018-08-17T12:32:47.597Z,2.20
2018-08-17T12:36:50.758Z,4.27
2018-08-17T12:40:55.181Z,2.33
2018-08-17T12:45:02.616Z,2.63
2018-08-17T12:49:05.733Z,3.23
2018-08-17T12:53:08.856Z,1.40
2018-08-17T12:57:11.985Z,2.80
2018-08-17T13:01:15.095Z,3.33
2018-08-17T13:05:18.180Z,1.83
2018-08-17T13:09:21.548Z,2.23
2018-08-17T13:13:24.628Z,3.13
2018-08-17T13:17:31.988Z,2.73
2018-08-17T13:21:35.169Z,3.60
2018-08-17T13:25:38.589Z,4.53
2018-08-17T13:29:41.745Z,2.83
2018-08-17T13:33:44.929Z,1.60
2018-08-17T13:37:48.009Z,1.70
2018-08-17T13:41:51.341Z,2.47
2018-08-17T13:45:54.407Z,1.93
2018-08-17T13:49:57.619Z,1.47
2018-08-17T13:54:00.708Z,2.50
2018-08-17T13:58:03.827Z,2.63
2018-08-17T14:02:07.067Z,1.70
2018-08-17T14:06:10.224Z,3.83
2018-08-17T14:10:13.457Z,3.00
2018-08-17T14:14:16.427Z,2.33
2018-08-17T14:18:19.507Z,2.80
2018-08-17T14:22:22.712Z,4.43
2018-08-17T14:26:25.735Z,2.00
2018-08-17T14:30:28.917Z,4.50
2018-08-17T14:34:32.024Z,3.50
2018-08-17T14:38:36.451Z,1.80
2018-08-17T14:42:40.088Z,4.57
2018-08-17T14:46:43.299Z,1.63
2018-08-17T14:50:46.373Z,3.70
2018-08-17T14:54:49.472Z,2.60
2018-08-17T14:58:52.539Z,2.57
2018-08-17T15:02:55.756Z,5.47
2018-08-17T15:06:58.836Z,2.93
2018-08-17T15:11:01.960Z,3.63
2018-08-17T15:15:05.060Z,4.13
2018-08-17T15:19:08.188Z,4.40
2018-08-17T15:23:11.267Z,2.53
2018-08-17T15:27:14.461Z,1.80
2018-08-17T15:31:17.560Z,2.63
2018-08-17T15:35:20.708Z,4.80
2018-08-17T15:39:23.788Z,1.47
2018-08-17T15:43:27.457Z,2.13
2018-08-17T15:47:33.065Z,2.03
2018-08-17T15:51:36.300Z,2.00
2018-08-17T15:55:39.356Z,1.27
2018-08-17T15:59:42.477Z,2.83
2018-08-17T16:03:45.561Z,3.23
2018-08-17T16:07:48.681Z,1.60
2018-08-17T16:11:51.763Z,1.20
2018-08-17T16:15:54.871Z,1.40
2018-08-17T16:19:57.940Z,2.70
2018-08-17T16:24:01.797Z,4.10
2018-08-17T16:28:04.872Z,2.50
2018-08-17T16:32:08.100Z,4.00
2018-08-17T16:36:11.188Z,2.80
2018-08-17T16:40:14.449Z,2.63
2018-08-17T16:44:17.628Z,2.60
2018-08-17T16:48:21.404Z,4.97
2018-08-17T16:52:24.497Z,3.63
2018-08-17T16:56:27.596Z,3.67
2018-08-17T17:00:30.783Z,2.50
2018-08-17T17:04:37.312Z,2.37
2018-08-17T17:08:40.345Z,3.73
2018-08-17T17:12:43.448Z,3.23
2018-08-17T17:16:47.539Z,3.27
2018-08-17T17:20:50.750Z,4.33
2018-08-17T17:24:53.936Z,3.17
2018-08-17T17:28:57.095Z,3.03
2018-08-17T17:33:00.192Z,1.80
2018-08-17T17:37:03.301Z,1.27
2018-08-17T17:41:06.400Z,4.40
2018-08-17T17:45:09.747Z,2.97
2018-08-17T17:49:12.820Z,4.43
2018-08-17T17:53:15.920Z,4.33
2018-08-17T17:57:18.995Z,3.60
2018-08-17T18:01:22.126Z,3.83
2018-08-17T18:05:25.209Z,4.00
2018-08-17T18:09:28.393Z,1.70
2018-08-17T18:13:31.464Z,3.27
2018-08-17T18:17:34.661Z,2.93
2018-08-17T18:21:38.628Z,1.80
2018-08-17T18:25:41.731Z,2.07
2018-08-17T18:29:44.825Z,3.40
2018-08-17T18:33:47.948Z,1.63
2018-08-17T18:37:51.037Z,3.77
2018-08-17T18:41:54.233Z,2.20
2018-08-17T18:45:57.435Z,2.60
2018-08-17T18:50:00.548Z,4.27
2018-08-17T18:54:03.945Z,2.47
2018-08-17T18:58:07.045Z,2.20
2018-08-17T19:02:10.119Z,3.10
2018-08-17T19:06:13.331Z,2.90
2018-08-17T19:10:16.407Z,2.70
2018-08-17T19:14:19.940Z,6.33
2018-08-17T19:18:23.876Z,4.40
2018-08-17T19:22:26.972Z,4.23
2018-08-17T19:26:30.048Z,3.00
2018-08-17T19:30:33.162Z,5.23
2018-08-17T19:34:36.240Z,3.17
2018-08-17T19:38:41.356Z,4.00
2018-08-17T19:42:44.448Z,4.90
2018-08-17T19:46:47.823Z,5.03
2018-08-17T19:50:50.904Z,5.40
2018-08-17T19:54:54.020Z,11.37
2018-08-17T19:58:57.116Z,5.07
2018-08-17T20:03:00.232Z,5.67
2018-08-17T20:07:03.317Z,6.53
2018-08-17T20:11:06.517Z,6.27
2018-08-17T20:15:09.652Z,6.67
2018-08-17T20:19:12.816Z,5.70
2018-08-17T20:23:15.863Z,4.90
2018-08-17T20:27:19.860Z,11.80
2018-08-17T20:31:22.970Z,7.53
2018-08-17T20:35:26.212Z,7.00
2018-08-17T20:39:29.280Z,5.33
2018-08-17T20:43:32.275Z,6.17
2018-08-17T20:47:36.372Z,6.10
2018-08-17T20:51:40.264Z,8.63
2018-08-17T20:55:43.336Z,7.20
2018-08-17T20:59:46.534Z,9.07
2018-08-17T21:03:49.608Z,6.77
2018-08-17T21:07:52.730Z,6.60
2018-08-17T21:11:55.812Z,6.50
2018-08-17T21:15:58.939Z,6.20
2018-08-17T21:20:02.035Z,7.27
2018-08-17T21:24:05.148Z,6.47
2018-08-17T21:28:08.224Z,6.60
2018-08-17T21:32:11.433Z,7.43
2018-08-17T21:36:14.525Z,7.13
2018-08-17T21:40:23.864Z,7.10
2018-08-17T21:44:26.940Z,6.50
2018-08-17T21:48:30.513Z,7.33
2018-08-17T21:52:33.588Z,6.20
2018-08-17T21:56:36.816Z,7.20
2018-08-17T22:00:39.901Z,13.73
2018-08-17T22:04:43.015Z,12.40
2018-08-17T22:08:46.084Z,7.17
2018-08-17T22:12:49.328Z,7.07
2018-08-17T22:16:52.399Z,8.07
2018-08-17T22:20:55.527Z,7.37
2018-08-17T22:24:59.307Z,7.83
2018-08-17T22:29:02.512Z,7.80
2018-08-17T22:33:05.779Z,8.90
2018-08-17T22:37:08.980Z,8.90
2018-08-17T22:41:12.048Z,8.13
2018-08-17T22:45:15.205Z,11.57
2018-08-17T22:49:18.480Z,10.17
2018-08-17T22:53:21.663Z,8.33
2018-08-17T22:57:25.252Z,10.00
2018-08-17T23:01:28.383Z,9.00
2018-08-17T23:05:34.920Z,7.10
2018-08-17T23:09:38.200Z,6.30
2018-08-17T23:13:41.280Z,7.13
2018-08-17T23:18:00.813Z,8.23
2018-08-17T23:22:03.893Z,8.87
2018-08-17T23:26:07.132Z,5.60
2018-08-17T23:30:10.211Z,8.47
2018-08-17T23:34:13.404Z,7.90
2018-08-17T23:38:16.488Z,10.63
2018-08-17T23:42:19.648Z,7.07
2018-08-17T23:46:22.725Z,6.07
2018-08-17T23:50:26.053Z,6.93
2018-08-17T23:54:29.128Z,8.90
2018-08-17T23:58:32.319Z,7.57
